Morgantown Municipal Walter L. Bill Hart Field Morgantown US
ICAO: KMGW
IATA: MGW
Category: Medium
Scheduled Services: Yes

Elevation: 1248 ft
TransAlt. 18000 ft.

Airport Communications:
CLARKSBURG APP/DEP:121.15
ASOS:120.675
CTAF:125.1
GND:121.7
ELKINS RDO:122.6
TWR:125.1
UNICOM:122.95

KMGW Zoom In..

Runways:

(A) RW 18 length 5199 ft width 150 ft
ILS 108.50 / hdg 181

(B) RW 36 length 5199 ft width 150 ft
---- / hdg 1

Location; KMGW
Day. 26 / Time. 12.53 Zulu
* Altimeter: 29.93
* Temperature: 23° c. 73.4°f.
* Wind from: 190° Speed 08 kn.
Dewpoint: 19° c.
Visibility: 10 Statute Miles.
Clouds: Few 7500 ft.

KMGW 261253Z 19008KT 10SM FEW075 23/19 A2993 RMK AO2 SLP125 T02330194


Wind From 190°
Speed 08 kn.

 
 
jpsmedia.com for Web Design SOUNDCLOUD worldairports.se 2018   terms of use